Huvudsida
METAR-TAF:

METAR-TAF

Flygplatser :

Honiara International Airport

Honiara, Guadalcanal, Salomonöarna

latitud: 09-25S, longitud: 160-03E, höjd: 8 m

Aktuellt väderrapport

Denna rapport gjordes för 16 minuter sedan, klockan 16:00 UTC
Stilla vind
Temperatur 23°C
Fuktighet 100%
Tryck 1007 hPa
Sikt 10 km eller mer
Få moln på en höjd av 1500 ft
Spridda moln på en höjd av 30000 ft
torrdis

METAR: AGGH 141600Z 00000KT 9999 HZ FEW015 SCT300 23/23 Q1007

Tid: 03:16 (16:16 UTC)

Väderprognos

Prognos gäller från 14 kl. 11 UTC till 14 kl. 15 UTC
Vind 3 kt varierande vindriktning
Sikt 10 km eller mer
Få moln på en höjd av 1600 ft
Från 14 kl. 2300 UTC
Vind 10 kt från ost
Sikt: 1008 m
Spridda moln på en höjd av 1900 ft

TAF: AGGH 141115 1412/1512 VRB03KT 9999 FEW016 FM142300 09010KT 9999 SCT019 T 26 24 23 26 Q 1009 1007 1006 1008

Aktuella väderrapporter och prognoser från 4000 flygplatser (METAR- och TAF-rapporter).

De tillgängliga stationerna syns som gula och röda prickar på kartan.

För musen över prickarna för att se namnen på stationerna.

Klicka sedan för att få väderrapporter och prognoser.

För att ändra kartan: Klicka på de gröna knapparna med ett svart kors på för att zooma in; den gröna knappen med ett streck på för att zooma ut; eller på de gröna pilarna för angränsande kartor.


METAR-TAF: